sensor_id;sensor_type;location;lat;lon;timestamp;P1;durP1;ratioP1;P2;durP2;ratioP2
12846;SDS011;6492;48.128;8.320;2023-11-21T00:00:02;0.50;;;0.50;;
12846;SDS011;6492;48.128;8.320;2023-11-21T00:04:10;3.00;;;0.50;;
12846;SDS011;6492;48.128;8.320;2023-11-21T00:08:12;0.43;;;0.43;;
12846;SDS011;6492;48.128;8.320;2023-11-21T00:12:15;1.60;;;0.70;;
12846;SDS011;6492;48.128;8.320;2023-11-21T00:16:17;0.70;;;0.50;;
12846;SDS011;6492;48.128;8.320;2023-11-21T00:20:20;3.03;;;2.10;;
12846;SDS011;6492;48.128;8.320;2023-11-21T00:24:21;0.50;;;0.50;;
12846;SDS011;6492;48.128;8.320;2023-11-21T00:28:37;1.37;;;0.50;;
12846;SDS011;6492;48.128;8.320;2023-11-21T00:32:38;0.30;;;0.30;;
12846;SDS011;6492;48.128;8.320;2023-11-21T00:36:40;1.13;;;0.43;;
12846;SDS011;6492;48.128;8.320;2023-11-21T00:40:42;0.20;;;0.20;;
12846;SDS011;6492;48.128;8.320;2023-11-21T00:44:45;0.50;;;0.40;;
12846;SDS011;6492;48.128;8.320;2023-11-21T00:48:47;0.30;;;0.30;;
12846;SDS011;6492;48.128;8.320;2023-11-21T00:52:48;1.20;;;0.33;;
12846;SDS011;6492;48.128;8.320;2023-11-21T00:56:51;0.37;;;0.30;;
12846;SDS011;6492;48.128;8.320;2023-11-21T01:00:54;0.27;;;0.27;;
12846;SDS011;6492;48.128;8.320;2023-11-21T01:04:56;0.60;;;0.40;;
12846;SDS011;6492;48.128;8.320;2023-11-21T01:08:58;0.30;;;0.30;;
12846;SDS011;6492;48.128;8.320;2023-11-21T01:12:59;0.20;;;0.20;;
12846;SDS011;6492;48.128;8.320;2023-11-21T01:17:03;0.67;;;0.20;;
12846;SDS011;6492;48.128;8.320;2023-11-21T01:21:05;0.30;;;0.30;;
12846;SDS011;6492;48.128;8.320;2023-11-21T01:25:09;1.13;;;0.17;;
12846;SDS011;6492;48.128;8.320;2023-11-21T01:29:10;0.60;;;0.27;;
12846;SDS011;6492;48.128;8.320;2023-11-21T01:33:13;0.20;;;0.20;;
12846;SDS011;6492;48.128;8.320;2023-11-21T01:37:16;0.87;;;0.40;;
12846;SDS011;6492;48.128;8.320;2023-11-21T01:41:18;0.20;;;0.20;;
12846;SDS011;6492;48.128;8.320;2023-11-21T01:45:20;0.20;;;0.20;;
12846;SDS011;6492;48.128;8.320;2023-11-21T01:49:23;0.77;;;0.30;;
12846;SDS011;6492;48.128;8.320;2023-11-21T01:53:25;0.30;;;0.20;;
12846;SDS011;6492;48.128;8.320;2023-11-21T01:57:28;0.53;;;0.30;;
12846;SDS011;6492;48.128;8.320;2023-11-21T02:01:30;0.20;;;0.20;;
12846;SDS011;6492;48.128;8.320;2023-11-21T02:05:33;0.40;;;0.30;;
12846;SDS011;6492;48.128;8.320;2023-11-21T02:09:35;0.20;;;0.13;;
12846;SDS011;6492;48.128;8.320;2023-11-21T02:13:38;0.20;;;0.20;;
12846;SDS011;6492;48.128;8.320;2023-11-21T02:17:43;0.60;;;0.20;;
12846;SDS011;6492;48.128;8.320;2023-11-21T02:21:46;0.23;;;0.23;;
12846;SDS011;6492;48.128;8.320;2023-11-21T02:25:51;0.40;;;0.30;;
12846;SDS011;6492;48.128;8.320;2023-11-21T02:29:53;0.63;;;0.30;;
12846;SDS011;6492;48.128;8.320;2023-11-21T02:33:55;0.40;;;0.27;;
12846;SDS011;6492;48.128;8.320;2023-11-21T02:37:57;1.30;;;1.20;;
12846;SDS011;6492;48.128;8.320;2023-11-21T02:42:00;1.30;;;0.50;;
12846;SDS011;6492;48.128;8.320;2023-11-21T02:46:04;0.30;;;0.30;;
12846;SDS011;6492;48.128;8.320;2023-11-21T02:50:07;0.40;;;0.40;;
12846;SDS011;6492;48.128;8.320;2023-11-21T02:54:11;0.30;;;0.30;;
12846;SDS011;6492;48.128;8.320;2023-11-21T02:58:14;0.20;;;0.20;;
12846;SDS011;6492;48.128;8.320;2023-11-21T03:02:16;0.40;;;0.27;;
12846;SDS011;6492;48.128;8.320;2023-11-21T03:06:17;1.03;;;0.30;;
12846;SDS011;6492;48.128;8.320;2023-11-21T03:10:19;0.30;;;0.30;;
12846;SDS011;6492;48.128;8.320;2023-11-21T03:14:22;0.97;;;0.60;;
12846;SDS011;6492;48.128;8.320;2023-11-21T03:18:24;0.40;;;0.40;;
12846;SDS011;6492;48.128;8.320;2023-11-21T03:22:26;0.33;;;0.33;;
12846;SDS011;6492;48.128;8.320;2023-11-21T03:26:28;0.60;;;0.60;;
12846;SDS011;6492;48.128;8.320;2023-11-21T03:30:32;0.43;;;0.40;;
12846;SDS011;6492;48.128;8.320;2023-11-21T03:34:33;1.47;;;0.73;;
12846;SDS011;6492;48.128;8.320;2023-11-21T03:38:35;1.23;;;0.70;;
12846;SDS011;6492;48.128;8.320;2023-11-21T03:42:38;0.70;;;0.70;;
12846;SDS011;6492;48.128;8.320;2023-11-21T03:51:11;0.70;;;0.60;;
12846;SDS011;6492;48.128;8.320;2023-11-21T03:55:12;0.63;;;0.40;;
12846;SDS011;6492;48.128;8.320;2023-11-21T03:59:15;0.50;;;0.50;;
12846;SDS011;6492;48.128;8.320;2023-11-21T04:03:16;0.40;;;0.40;;
12846;SDS011;6492;48.128;8.320;2023-11-21T04:07:33;0.40;;;0.40;;
12846;SDS011;6492;48.128;8.320;2023-11-21T04:11:42;0.83;;;0.70;;
12846;SDS011;6492;48.128;8.320;2023-11-21T04:15:45;2.00;;;0.50;;
12846;SDS011;6492;48.128;8.320;2023-11-21T04:19:47;0.70;;;0.50;;
12846;SDS011;6492;48.128;8.320;2023-11-21T04:23:50;0.87;;;0.60;;
12846;SDS011;6492;48.128;8.320;2023-11-21T04:27:52;0.30;;;0.30;;
12846;SDS011;6492;48.128;8.320;2023-11-21T04:31:54;0.97;;;0.87;;
12846;SDS011;6492;48.128;8.320;2023-11-21T04:35:55;0.80;;;0.80;;
12846;SDS011;6492;48.128;8.320;2023-11-21T04:39:59;1.47;;;0.60;;
12846;SDS011;6492;48.128;8.320;2023-11-21T04:44:01;0.60;;;0.43;;
12846;SDS011;6492;48.128;8.320;2023-11-21T04:48:03;1.00;;;0.63;;
12846;SDS011;6492;48.128;8.320;2023-11-21T04:52:05;2.40;;;0.50;;
12846;SDS011;6492;48.128;8.320;2023-11-21T04:56:10;0.50;;;0.50;;
12846;SDS011;6492;48.128;8.320;2023-11-21T05:00:12;1.23;;;0.43;;
12846;SDS011;6492;48.128;8.320;2023-11-21T05:04:18;0.40;;;0.40;;
12846;SDS011;6492;48.128;8.320;2023-11-21T05:08:22;1.20;;;0.90;;
12846;SDS011;6492;48.128;8.320;2023-11-21T05:12:25;1.00;;;0.70;;
12846;SDS011;6492;48.128;8.320;2023-11-21T05:16:27;3.30;;;2.00;;
12846;SDS011;6492;48.128;8.320;2023-11-21T05:20:29;2.67;;;1.83;;
12846;SDS011;6492;48.128;8.320;2023-11-21T05:24:31;4.20;;;2.90;;
12846;SDS011;6492;48.128;8.320;2023-11-21T05:28:34;2.73;;;2.33;;
12846;SDS011;6492;48.128;8.320;2023-11-21T05:32:36;2.53;;;2.33;;
12846;SDS011;6492;48.128;8.320;2023-11-21T05:36:47;2.50;;;2.03;;
12846;SDS011;6492;48.128;8.320;2023-11-21T05:45:08;0.70;;;0.70;;
12846;SDS011;6492;48.128;8.320;2023-11-21T05:49:11;0.87;;;0.80;;
12846;SDS011;6492;48.128;8.320;2023-11-21T05:53:12;0.43;;;0.43;;
12846;SDS011;6492;48.128;8.320;2023-11-21T05:57:15;1.40;;;1.30;;
12846;SDS011;6492;48.128;8.320;2023-11-21T06:01:19;1.67;;;1.00;;
12846;SDS011;6492;48.128;8.320;2023-11-21T06:05:21;1.60;;;1.50;;
12846;SDS011;6492;48.128;8.320;2023-11-21T06:09:36;1.70;;;1.60;;
12846;SDS011;6492;48.128;8.320;2023-11-21T06:13:38;1.73;;;1.20;;
12846;SDS011;6492;48.128;8.320;2023-11-21T06:17:41;1.43;;;1.17;;
12846;SDS011;6492;48.128;8.320;2023-11-21T06:21:45;1.27;;;1.10;;
12846;SDS011;6492;48.128;8.320;2023-11-21T06:25:50;1.37;;;1.27;;
12846;SDS011;6492;48.128;8.320;2023-11-21T06:29:52;1.50;;;1.10;;
12846;SDS011;6492;48.128;8.320;2023-11-21T06:33:56;1.10;;;1.10;;
12846;SDS011;6492;48.128;8.320;2023-11-21T06:37:59;1.10;;;0.90;;
12846;SDS011;6492;48.128;8.320;2023-11-21T06:42:02;2.83;;;2.60;;
12846;SDS011;6492;48.128;8.320;2023-11-21T06:46:04;1.50;;;1.40;;
12846;SDS011;6492;48.128;8.320;2023-11-21T06:50:08;1.53;;;1.43;;
12846;SDS011;6492;48.128;8.320;2023-11-21T06:54:10;1.70;;;1.30;;
12846;SDS011;6492;48.128;8.320;2023-11-21T06:58:12;1.40;;;1.30;;
12846;SDS011;6492;48.128;8.320;2023-11-21T07:02:14;3.43;;;1.30;;
12846;SDS011;6492;48.128;8.320;2023-11-21T07:06:19;1.60;;;1.50;;
12846;SDS011;6492;48.128;8.320;2023-11-21T07:10:21;2.03;;;1.87;;
12846;SDS011;6492;48.128;8.320;2023-11-21T07:14:23;2.50;;;2.17;;
12846;SDS011;6492;48.128;8.320;2023-11-21T07:18:25;2.67;;;2.30;;
12846;SDS011;6492;48.128;8.320;2023-11-21T07:22:28;2.63;;;2.13;;
12846;SDS011;6492;48.128;8.320;2023-11-21T07:26:30;3.23;;;2.90;;
12846;SDS011;6492;48.128;8.320;2023-11-21T07:30:32;3.23;;;2.83;;
12846;SDS011;6492;48.128;8.320;2023-11-21T07:34:34;4.47;;;3.33;;
12846;SDS011;6492;48.128;8.320;2023-11-21T07:38:37;4.00;;;3.50;;
12846;SDS011;6492;48.128;8.320;2023-11-21T07:42:39;5.03;;;3.97;;
12846;SDS011;6492;48.128;8.320;2023-11-21T07:46:42;5.37;;;3.97;;
12846;SDS011;6492;48.128;8.320;2023-11-21T07:50:44;5.73;;;4.60;;
12846;SDS011;6492;48.128;8.320;2023-11-21T07:54:52;8.60;;;5.03;;
12846;SDS011;6492;48.128;8.320;2023-11-21T07:59:05;7.47;;;4.67;;
12846;SDS011;6492;48.128;8.320;2023-11-21T08:03:07;8.30;;;6.17;;
12846;SDS011;6492;48.128;8.320;2023-11-21T08:07:09;7.47;;;4.70;;
12846;SDS011;6492;48.128;8.320;2023-11-21T08:11:12;5.80;;;4.23;;
12846;SDS011;6492;48.128;8.320;2023-11-21T08:15:14;6.10;;;4.40;;
12846;SDS011;6492;48.128;8.320;2023-11-21T08:19:16;5.30;;;3.77;;
12846;SDS011;6492;48.128;8.320;2023-11-21T08:23:18;5.23;;;4.20;;
12846;SDS011;6492;48.128;8.320;2023-11-21T08:27:21;4.83;;;3.60;;
12846;SDS011;6492;48.128;8.320;2023-11-21T08:39:46;3.57;;;3.27;;
12846;SDS011;6492;48.128;8.320;2023-11-21T08:43:50;4.03;;;3.63;;
12846;SDS011;6492;48.128;8.320;2023-11-21T08:47:53;4.93;;;4.27;;
12846;SDS011;6492;48.128;8.320;2023-11-21T08:51:55;4.87;;;3.40;;
12846;SDS011;6492;48.128;8.320;2023-11-21T09:00:08;4.03;;;2.97;;
12846;SDS011;6492;48.128;8.320;2023-11-21T09:04:11;4.00;;;3.23;;
12846;SDS011;6492;48.128;8.320;2023-11-21T09:08:13;5.10;;;3.10;;
12846;SDS011;6492;48.128;8.320;2023-11-21T09:12:16;3.47;;;3.10;;
12846;SDS011;6492;48.128;8.320;2023-11-21T09:16:20;3.60;;;3.30;;
12846;SDS011;6492;48.128;8.320;2023-11-21T09:20:22;4.00;;;2.70;;
12846;SDS011;6492;48.128;8.320;2023-11-21T09:24:24;3.00;;;2.07;;
12846;SDS011;6492;48.128;8.320;2023-11-21T09:28:26;2.20;;;2.00;;
12846;SDS011;6492;48.128;8.320;2023-11-21T09:32:30;3.20;;;1.80;;
12846;SDS011;6492;48.128;8.320;2023-11-21T09:36:46;1.80;;;1.70;;
12846;SDS011;6492;48.128;8.320;2023-11-21T09:49:46;1.70;;;1.50;;
12846;SDS011;6492;48.128;8.320;2023-11-21T09:53:50;1.60;;;1.10;;
12846;SDS011;6492;48.128;8.320;2023-11-21T09:57:53;1.97;;;1.23;;
12846;SDS011;6492;48.128;8.320;2023-11-21T10:01:57;1.63;;;1.50;;
12846;SDS011;6492;48.128;8.320;2023-11-21T10:06:00;1.30;;;1.20;;
12846;SDS011;6492;48.128;8.320;2023-11-21T10:10:05;1.50;;;1.40;;
12846;SDS011;6492;48.128;8.320;2023-11-21T10:14:10;1.40;;;1.30;;
12846;SDS011;6492;48.128;8.320;2023-11-21T10:18:14;1.43;;;1.27;;
12846;SDS011;6492;48.128;8.320;2023-11-21T10:22:18;1.10;;;1.00;;
12846;SDS011;6492;48.128;8.320;2023-11-21T10:26:21;1.47;;;1.37;;
12846;SDS011;6492;48.128;8.320;2023-11-21T10:30:24;4.00;;;1.30;;
12846;SDS011;6492;48.128;8.320;2023-11-21T10:34:29;2.60;;;1.40;;
12846;SDS011;6492;48.128;8.320;2023-11-21T10:38:35;1.40;;;1.30;;
12846;SDS011;6492;48.128;8.320;2023-11-21T10:42:45;2.13;;;1.83;;
12846;SDS011;6492;48.128;8.320;2023-11-21T10:46:47;1.80;;;1.70;;
12846;SDS011;6492;48.128;8.320;2023-11-21T10:50:50;3.97;;;1.30;;
12846;SDS011;6492;48.128;8.320;2023-11-21T10:54:53;1.50;;;1.40;;
12846;SDS011;6492;48.128;8.320;2023-11-21T10:58:55;1.30;;;1.20;;
12846;SDS011;6492;48.128;8.320;2023-11-21T11:02:58;1.23;;;1.13;;
12846;SDS011;6492;48.128;8.320;2023-11-21T11:07:02;1.40;;;1.30;;
12846;SDS011;6492;48.128;8.320;2023-11-21T11:11:05;1.17;;;0.93;;
12846;SDS011;6492;48.128;8.320;2023-11-21T11:15:09;1.07;;;0.50;;
12846;SDS011;6492;48.128;8.320;2023-11-21T11:19:11;0.60;;;0.60;;
12846;SDS011;6492;48.128;8.320;2023-11-21T11:23:17;1.43;;;0.50;;
12846;SDS011;6492;48.128;8.320;2023-11-21T11:27:37;0.60;;;0.50;;
12846;SDS011;6492;48.128;8.320;2023-11-21T11:31:50;1.40;;;0.60;;
12846;SDS011;6492;48.128;8.320;2023-11-21T11:36:02;0.80;;;0.80;;
12846;SDS011;6492;48.128;8.320;2023-11-21T11:40:08;0.50;;;0.50;;
12846;SDS011;6492;48.128;8.320;2023-11-21T11:49:02;0.33;;;0.33;;
12846;SDS011;6492;48.128;8.320;2023-11-21T11:53:14;0.40;;;0.30;;
12846;SDS011;6492;48.128;8.320;2023-11-21T11:57:26;0.20;;;0.20;;
12846;SDS011;6492;48.128;8.320;2023-11-21T12:01:33;1.13;;;0.27;;
12846;SDS011;6492;48.128;8.320;2023-11-21T12:05:35;0.40;;;0.40;;
12846;SDS011;6492;48.128;8.320;2023-11-21T12:09:40;3.03;;;1.70;;
12846;SDS011;6492;48.128;8.320;2023-11-21T12:13:42;3.50;;;2.07;;
12846;SDS011;6492;48.128;8.320;2023-11-21T12:17:46;0.27;;;0.27;;
12846;SDS011;6492;48.128;8.320;2023-11-21T12:21:49;0.20;;;0.20;;
12846;SDS011;6492;48.128;8.320;2023-11-21T12:25:52;0.30;;;0.30;;
12846;SDS011;6492;48.128;8.320;2023-11-21T12:29:54;0.20;;;0.20;;
12846;SDS011;6492;48.128;8.320;2023-11-21T12:33:57;0.53;;;0.40;;
12846;SDS011;6492;48.128;8.320;2023-11-21T12:37:59;0.30;;;0.30;;
12846;SDS011;6492;48.128;8.320;2023-11-21T12:42:03;0.13;;;0.13;;
12846;SDS011;6492;48.128;8.320;2023-11-21T12:46:06;0.80;;;0.47;;
12846;SDS011;6492;48.128;8.320;2023-11-21T12:50:10;2.57;;;0.73;;
12846;SDS011;6492;48.128;8.320;2023-11-21T12:54:14;0.70;;;0.70;;
12846;SDS011;6492;48.128;8.320;2023-11-21T12:58:17;0.40;;;0.40;;
12846;SDS011;6492;48.128;8.320;2023-11-21T13:02:25;0.20;;;0.20;;
12846;SDS011;6492;48.128;8.320;2023-11-21T13:06:28;0.30;;;0.30;;
12846;SDS011;6492;48.128;8.320;2023-11-21T13:10:39;0.40;;;0.40;;
12846;SDS011;6492;48.128;8.320;2023-11-21T13:14:43;0.20;;;0.20;;
12846;SDS011;6492;48.128;8.320;2023-11-21T13:18:47;0.30;;;0.30;;
12846;SDS011;6492;48.128;8.320;2023-11-21T13:22:50;0.30;;;0.30;;
12846;SDS011;6492;48.128;8.320;2023-11-21T13:26:57;0.40;;;0.40;;
12846;SDS011;6492;48.128;8.320;2023-11-21T13:31:07;0.27;;;0.27;;
12846;SDS011;6492;48.128;8.320;2023-11-21T13:35:20;0.30;;;0.30;;
12846;SDS011;6492;48.128;8.320;2023-11-21T13:39:32;0.60;;;0.40;;
12846;SDS011;6492;48.128;8.320;2023-11-21T13:43:34;0.10;;;0.10;;
12846;SDS011;6492;48.128;8.320;2023-11-21T13:47:37;0.20;;;0.20;;
12846;SDS011;6492;48.128;8.320;2023-11-21T13:51:39;0.20;;;0.20;;
12846;SDS011;6492;48.128;8.320;2023-11-21T13:55:45;0.53;;;0.40;;
12846;SDS011;6492;48.128;8.320;2023-11-21T13:59:47;0.63;;;0.30;;
12846;SDS011;6492;48.128;8.320;2023-11-21T14:03:49;0.27;;;0.27;;
12846;SDS011;6492;48.128;8.320;2023-11-21T14:07:56;0.40;;;0.40;;
12846;SDS011;6492;48.128;8.320;2023-11-21T14:12:06;0.50;;;0.50;;
12846;SDS011;6492;48.128;8.320;2023-11-21T14:16:12;0.40;;;0.40;;
12846;SDS011;6492;48.128;8.320;2023-11-21T14:20:14;0.40;;;0.40;;
12846;SDS011;6492;48.128;8.320;2023-11-21T14:24:17;0.50;;;0.50;;
12846;SDS011;6492;48.128;8.320;2023-11-21T14:28:20;0.50;;;0.50;;
12846;SDS011;6492;48.128;8.320;2023-11-21T14:32:22;0.70;;;0.70;;
12846;SDS011;6492;48.128;8.320;2023-11-21T14:36:25;0.90;;;0.90;;
12846;SDS011;6492;48.128;8.320;2023-11-21T14:40:27;1.00;;;0.80;;
12846;SDS011;6492;48.128;8.320;2023-11-21T14:44:34;0.70;;;0.70;;
12846;SDS011;6492;48.128;8.320;2023-11-21T14:48:41;0.60;;;0.60;;
12846;SDS011;6492;48.128;8.320;2023-11-21T14:52:43;0.70;;;0.70;;
12846;SDS011;6492;48.128;8.320;2023-11-21T14:56:55;0.80;;;0.80;;
12846;SDS011;6492;48.128;8.320;2023-11-21T15:00:58;1.00;;;1.00;;
12846;SDS011;6492;48.128;8.320;2023-11-21T15:05:00;1.13;;;1.03;;
12846;SDS011;6492;48.128;8.320;2023-11-21T15:09:03;1.27;;;1.17;;
12846;SDS011;6492;48.128;8.320;2023-11-21T15:13:34;1.43;;;1.10;;
12846;SDS011;6492;48.128;8.320;2023-11-21T15:17:37;1.30;;;1.20;;
12846;SDS011;6492;48.128;8.320;2023-11-21T15:21:42;1.40;;;1.30;;
12846;SDS011;6492;48.128;8.320;2023-11-21T15:29:54;1.17;;;1.07;;
12846;SDS011;6492;48.128;8.320;2023-11-21T15:33:57;3.53;;;2.77;;
12846;SDS011;6492;48.128;8.320;2023-11-21T15:38:00;1.70;;;1.60;;
12846;SDS011;6492;48.128;8.320;2023-11-21T15:42:02;3.33;;;3.03;;
12846;SDS011;6492;48.128;8.320;2023-11-21T15:46:04;2.10;;;1.90;;
12846;SDS011;6492;48.128;8.320;2023-11-21T15:50:09;2.10;;;2.00;;
12846;SDS011;6492;48.128;8.320;2023-11-21T15:54:25;1.60;;;1.50;;
12846;SDS011;6492;48.128;8.320;2023-11-21T15:58:33;1.83;;;1.73;;
12846;SDS011;6492;48.128;8.320;2023-11-21T16:02:37;3.30;;;2.47;;
12846;SDS011;6492;48.128;8.320;2023-11-21T16:06:40;2.40;;;2.20;;
12846;SDS011;6492;48.128;8.320;2023-11-21T16:10:42;2.50;;;2.30;;
12846;SDS011;6492;48.128;8.320;2023-11-21T16:14:50;1.73;;;1.63;;
12846;SDS011;6492;48.128;8.320;2023-11-21T16:19:01;2.03;;;1.90;;
12846;SDS011;6492;48.128;8.320;2023-11-21T16:23:04;2.83;;;2.60;;
12846;SDS011;6492;48.128;8.320;2023-11-21T16:27:08;2.30;;;2.10;;
12846;SDS011;6492;48.128;8.320;2023-11-21T16:31:23;5.90;;;4.03;;
12846;SDS011;6492;48.128;8.320;2023-11-21T16:35:25;5.20;;;4.07;;
12846;SDS011;6492;48.128;8.320;2023-11-21T16:39:28;4.73;;;4.27;;
12846;SDS011;6492;48.128;8.320;2023-11-21T16:43:47;2.80;;;2.50;;
12846;SDS011;6492;48.128;8.320;2023-11-21T16:47:49;2.17;;;1.67;;
12846;SDS011;6492;48.128;8.320;2023-11-21T16:51:58;2.20;;;2.00;;
12846;SDS011;6492;48.128;8.320;2023-11-21T17:00:13;1.70;;;1.60;;
12846;SDS011;6492;48.128;8.320;2023-11-21T17:04:18;2.63;;;1.90;;
12846;SDS011;6492;48.128;8.320;2023-11-21T17:08:20;3.80;;;2.73;;
12846;SDS011;6492;48.128;8.320;2023-11-21T17:12:23;2.60;;;2.40;;
12846;SDS011;6492;48.128;8.320;2023-11-21T17:16:26;2.70;;;2.50;;
12846;SDS011;6492;48.128;8.320;2023-11-21T17:20:27;3.40;;;3.10;;
12846;SDS011;6492;48.128;8.320;2023-11-21T17:24:29;4.83;;;4.00;;
12846;SDS011;6492;48.128;8.320;2023-11-21T17:28:34;5.87;;;5.33;;
12846;SDS011;6492;48.128;8.320;2023-11-21T17:32:35;5.83;;;5.03;;
12846;SDS011;6492;48.128;8.320;2023-11-21T17:36:37;2.40;;;2.20;;
12846;SDS011;6492;48.128;8.320;2023-11-21T17:40:41;4.07;;;3.40;;
12846;SDS011;6492;48.128;8.320;2023-11-21T17:44:46;1.83;;;1.73;;
12846;SDS011;6492;48.128;8.320;2023-11-21T17:48:48;3.73;;;2.30;;
12846;SDS011;6492;48.128;8.320;2023-11-21T17:52:52;2.60;;;2.33;;
12846;SDS011;6492;48.128;8.320;2023-11-21T17:56:54;1.70;;;1.60;;
12846;SDS011;6492;48.128;8.320;2023-11-21T18:00:57;4.93;;;3.10;;
12846;SDS011;6492;48.128;8.320;2023-11-21T18:04:59;5.70;;;5.20;;
12846;SDS011;6492;48.128;8.320;2023-11-21T18:09:01;6.50;;;4.97;;
12846;SDS011;6492;48.128;8.320;2023-11-21T18:13:04;4.20;;;3.70;;
12846;SDS011;6492;48.128;8.320;2023-11-21T18:17:08;4.43;;;3.70;;
12846;SDS011;6492;48.128;8.320;2023-11-21T18:21:09;5.20;;;4.17;;
12846;SDS011;6492;48.128;8.320;2023-11-21T18:25:11;3.50;;;3.00;;
12846;SDS011;6492;48.128;8.320;2023-11-21T18:29:13;3.93;;;3.10;;
12846;SDS011;6492;48.128;8.320;2023-11-21T18:33:19;5.20;;;3.93;;
12846;SDS011;6492;48.128;8.320;2023-11-21T18:37:21;10.37;;;6.07;;
12846;SDS011;6492;48.128;8.320;2023-11-21T18:41:23;6.73;;;4.57;;
12846;SDS011;6492;48.128;8.320;2023-11-21T18:45:26;4.10;;;3.50;;
12846;SDS011;6492;48.128;8.320;2023-11-21T18:49:37;5.93;;;4.23;;
12846;SDS011;6492;48.128;8.320;2023-11-21T18:53:45;4.47;;;3.47;;
12846;SDS011;6492;48.128;8.320;2023-11-21T18:57:49;5.40;;;4.37;;
12846;SDS011;6492;48.128;8.320;2023-11-21T19:01:57;8.00;;;6.03;;
12846;SDS011;6492;48.128;8.320;2023-11-21T19:06:02;6.93;;;5.43;;
12846;SDS011;6492;48.128;8.320;2023-11-21T19:10:05;6.13;;;5.37;;
12846;SDS011;6492;48.128;8.320;2023-11-21T19:14:09;7.33;;;5.13;;
12846;SDS011;6492;48.128;8.320;2023-11-21T19:18:15;5.37;;;4.80;;
12846;SDS011;6492;48.128;8.320;2023-11-21T19:22:33;11.87;;;8.23;;
12846;SDS011;6492;48.128;8.320;2023-11-21T19:26:39;7.03;;;5.90;;
12846;SDS011;6492;48.128;8.320;2023-11-21T19:30:42;8.37;;;5.40;;
12846;SDS011;6492;48.128;8.320;2023-11-21T19:34:59;7.00;;;6.30;;
12846;SDS011;6492;48.128;8.320;2023-11-21T19:39:02;6.53;;;4.87;;
12846;SDS011;6492;48.128;8.320;2023-11-21T19:43:04;7.07;;;5.80;;
12846;SDS011;6492;48.128;8.320;2023-11-21T19:51:46;5.87;;;4.70;;
12846;SDS011;6492;48.128;8.320;2023-11-21T19:55:51;6.50;;;5.60;;
12846;SDS011;6492;48.128;8.320;2023-11-21T19:59:55;5.40;;;4.40;;
12846;SDS011;6492;48.128;8.320;2023-11-21T20:03:57;5.27;;;4.00;;
12846;SDS011;6492;48.128;8.320;2023-11-21T20:08:10;6.57;;;4.70;;
12846;SDS011;6492;48.128;8.320;2023-11-21T20:12:14;7.10;;;5.10;;
12846;SDS011;6492;48.128;8.320;2023-11-21T20:16:29;4.53;;;4.13;;
12846;SDS011;6492;48.128;8.320;2023-11-21T20:20:48;5.23;;;4.50;;
12846;SDS011;6492;48.128;8.320;2023-11-21T20:24:50;5.33;;;4.30;;
12846;SDS011;6492;48.128;8.320;2023-11-21T20:33:17;5.63;;;3.87;;
12846;SDS011;6492;48.128;8.320;2023-11-21T20:37:19;6.27;;;4.43;;
12846;SDS011;6492;48.128;8.320;2023-11-21T20:41:29;5.17;;;3.70;;
12846;SDS011;6492;48.128;8.320;2023-11-21T20:45:49;4.80;;;3.87;;
12846;SDS011;6492;48.128;8.320;2023-11-21T20:49:52;7.50;;;4.23;;
12846;SDS011;6492;48.128;8.320;2023-11-21T20:54:05;5.37;;;3.97;;
12846;SDS011;6492;48.128;8.320;2023-11-21T20:58:07;7.57;;;5.10;;
12846;SDS011;6492;48.128;8.320;2023-11-21T21:02:11;9.73;;;4.40;;
12846;SDS011;6492;48.128;8.320;2023-11-21T21:06:12;6.10;;;4.30;;
12846;SDS011;6492;48.128;8.320;2023-11-21T21:14:41;6.27;;;4.40;;
12846;SDS011;6492;48.128;8.320;2023-11-21T21:18:44;6.40;;;4.60;;
12846;SDS011;6492;48.128;8.320;2023-11-21T21:22:46;7.17;;;4.43;;
12846;SDS011;6492;48.128;8.320;2023-11-21T21:26:52;9.00;;;4.47;;
12846;SDS011;6492;48.128;8.320;2023-11-21T21:30:53;8.77;;;4.70;;
12846;SDS011;6492;48.128;8.320;2023-11-21T21:34:58;7.43;;;4.50;;
12846;SDS011;6492;48.128;8.320;2023-11-21T21:39:01;6.27;;;4.47;;
12846;SDS011;6492;48.128;8.320;2023-11-21T21:43:10;5.60;;;4.03;;
12846;SDS011;6492;48.128;8.320;2023-11-21T21:47:12;9.50;;;4.73;;
12846;SDS011;6492;48.128;8.320;2023-11-21T21:51:16;4.77;;;4.27;;
12846;SDS011;6492;48.128;8.320;2023-11-21T21:55:18;6.17;;;4.47;;
12846;SDS011;6492;48.128;8.320;2023-11-21T21:59:19;9.30;;;4.90;;
12846;SDS011;6492;48.128;8.320;2023-11-21T22:03:22;6.07;;;4.20;;
12846;SDS011;6492;48.128;8.320;2023-11-21T22:07:25;5.50;;;4.23;;
12846;SDS011;6492;48.128;8.320;2023-11-21T22:11:27;8.07;;;4.13;;
12846;SDS011;6492;48.128;8.320;2023-11-21T22:15:28;7.80;;;5.50;;
12846;SDS011;6492;48.128;8.320;2023-11-21T22:19:37;6.33;;;4.90;;
12846;SDS011;6492;48.128;8.320;2023-11-21T22:23:42;5.57;;;4.43;;
12846;SDS011;6492;48.128;8.320;2023-11-21T22:27:44;8.33;;;4.70;;
12846;SDS011;6492;48.128;8.320;2023-11-21T22:36:16;6.90;;;4.47;;
12846;SDS011;6492;48.128;8.320;2023-11-21T22:40:20;6.90;;;4.70;;
12846;SDS011;6492;48.128;8.320;2023-11-21T22:44:22;9.97;;;5.30;;
12846;SDS011;6492;48.128;8.320;2023-11-21T22:48:23;6.07;;;4.87;;
12846;SDS011;6492;48.128;8.320;2023-11-21T22:52:27;11.60;;;5.70;;
12846;SDS011;6492;48.128;8.320;2023-11-21T22:56:30;9.23;;;5.80;;
12846;SDS011;6492;48.128;8.320;2023-11-21T23:00:38;9.07;;;5.47;;
12846;SDS011;6492;48.128;8.320;2023-11-21T23:04:41;7.87;;;5.10;;
12846;SDS011;6492;48.128;8.320;2023-11-21T23:08:43;8.80;;;5.10;;
12846;SDS011;6492;48.128;8.320;2023-11-21T23:12:47;9.00;;;5.33;;
12846;SDS011;6492;48.128;8.320;2023-11-21T23:16:49;8.10;;;4.83;;
12846;SDS011;6492;48.128;8.320;2023-11-21T23:20:52;9.33;;;4.27;;
12846;SDS011;6492;48.128;8.320;2023-11-21T23:24:54;6.17;;;4.50;;
12846;SDS011;6492;48.128;8.320;2023-11-21T23:28:57;8.70;;;4.83;;
12846;SDS011;6492;48.128;8.320;2023-11-21T23:32:59;5.57;;;4.17;;
12846;SDS011;6492;48.128;8.320;2023-11-21T23:37:00;4.17;;;3.23;;
12846;SDS011;6492;48.128;8.320;2023-11-21T23:41:03;7.63;;;4.07;;
12846;SDS011;6492;48.128;8.320;2023-11-21T23:45:07;5.73;;;4.07;;
12846;SDS011;6492;48.128;8.320;2023-11-21T23:49:09;6.97;;;3.73;;
12846;SDS011;6492;48.128;8.320;2023-11-21T23:53:11;4.80;;;3.40;;
12846;SDS011;6492;48.128;8.320;2023-11-21T23:57:13;6.73;;;3.53;;
